»·PEaware :: AAL793 KLAS-KPHX

AAL793 :: KLAS-KPHX

FLIGHT INFORMATION

Flight Status: Arrived
Operator:
American Airlines
More flights by this operator :: More flights under this callsign
Pilot: Gabriel S. (32862)
Aircraft: AIRBUS A321
(A321)
More flights by this aircraft type
Origin: KLAS McCarran Intl
United States
Destination: KPHX Phoenix Sky Harbor Intl
United States
More flights between these airports :: More routes between these airports
Route: PRFUM4 PRFUM WOTRO BRUSR1
File this flight plan on PilotEdge
Remarks: RMK / SIMBRIEF
Altitude:
(Current/Filed)
31,000ft
Speed:
(Current/Filed)
438kts
Departed: 06-Jan-21 08:36 PM
Arrived: 06-Jan-21 09:31 PM
Distance/Time
Traveled:
222nm/0:55
Distance/Time
To Go:
Arrived

Flight Plot

Page will automatically refresh every two minutes.

Flight plan parsing failed; only flown route is shown


Map Options




Map Legend


Flown Route
Filed Route
Departure Airport
Arrival Airport
Navaid (VOR, NDB)
Fix

Horizontal Profiles

Position Reports

Time Latitude Longitude Heading Altitude Ground
Speed
06-Jan-21 20:14 36.080820 -115.134753 242 2187ft 0kts
06-Jan-21 20:15 36.080820 -115.134753 242 2187ft 0kts
06-Jan-21 20:16 36.080820 -115.134753 242 2187ft 0kts
06-Jan-21 20:17 36.080820 -115.134753 242 2187ft 0kts
06-Jan-21 20:18 36.080820 -115.134753 242 2187ft 0kts
06-Jan-21 20:19 36.080820 -115.134753 242 2187ft 0kts
06-Jan-21 20:20 36.080820 -115.134753 242 2187ft 0kts
06-Jan-21 20:21 36.080820 -115.134753 242 2187ft 0kts
06-Jan-21 20:22 36.080820 -115.134753 242 2187ft 0kts
06-Jan-21 20:23 36.080820 -115.134753 242 2187ft 0kts
06-Jan-21 20:24 36.080820 -115.134753 242 2187ft 0kts
06-Jan-21 20:25 36.080832 -115.134709 247 2187ft 2kts
06-Jan-21 20:26 36.081312 -115.134280 165 2187ft 2kts
06-Jan-21 20:27 36.081513 -115.134438 134 2187ft 0kts
06-Jan-21 20:28 36.081513 -115.134438 134 2187ft 0kts
06-Jan-21 20:29 36.081513 -115.134438 134 2187ft 0kts
06-Jan-21 20:30 36.081417 -115.134336 137 2187ft 3kts
06-Jan-21 20:31 36.078409 -115.133736 180 2187ft 19kts
06-Jan-21 20:33 36.078303 -115.128798 90 2187ft 17kts
06-Jan-21 20:34 36.078176 -115.122435 132 2187ft 9kts
06-Jan-21 20:35 36.077144 -115.121258 168 2187ft 9kts
06-Jan-21 20:36 36.076427 -115.137807 269 2188ft 150kts
06-Jan-21 20:37 36.076458 -115.198779 270 4342ft 188kts
06-Jan-21 20:38 36.054092 -115.264423 201 5724ft 258kts
06-Jan-21 20:39 35.982616 -115.296358 195 6987ft 275kts
06-Jan-21 20:40 35.906447 -115.277542 163 8985ft 284kts
06-Jan-21 20:41 35.852511 -115.208881 105 10921ft 326kts
06-Jan-21 20:42 35.826133 -115.089393 99 12009ft 389kts
06-Jan-21 20:43 35.830372 -114.950085 83 14165ft 409kts
06-Jan-21 20:44 35.841431 -114.806154 84 16274ft 424kts
06-Jan-21 20:45 35.852153 -114.659345 84 18171ft 437kts
06-Jan-21 20:46 35.814429 -114.517402 125 19921ft 444kts
06-Jan-21 20:47 35.744584 -114.388447 124 21534ft 456kts
06-Jan-21 20:47 35.684874 -114.276004 124 22810ft 465kts
06-Jan-21 20:49 35.603700 -114.123786 125 25816ft 438kts
06-Jan-21 20:50 35.540931 -114.006816 125 26980ft 445kts
06-Jan-21 20:51 35.540931 -114.006816 125 26980ft 445kts
06-Jan-21 20:51 35.540931 -114.006816 125 26980ft 445kts
06-Jan-21 20:52 35.503255 -113.936810 125 27621ft 448kts
06-Jan-21 20:53 35.431403 -113.803560 125 28693ft 456kts
06-Jan-21 20:54 35.359302 -113.670459 125 28997ft 480kts
06-Jan-21 20:55 35.283434 -113.530890 124 28996ft 485kts
06-Jan-21 20:56 35.206736 -113.390495 124 28995ft 485kts
06-Jan-21 20:57 35.130432 -113.250633 125 28996ft 485kts
06-Jan-21 20:58 35.054479 -113.111699 125 28996ft 486kts
06-Jan-21 20:59 34.977524 -112.972492 125 28995ft 486kts
06-Jan-21 21:00 34.899958 -112.832892 125 28871ft 482kts
06-Jan-21 21:01 34.824530 -112.698466 125 27183ft 487kts
06-Jan-21 21:02 34.747970 -112.561617 125 24480ft 466kts
06-Jan-21 21:03 34.663314 -112.441036 143 23464ft 445kts
06-Jan-21 21:04 34.569532 -112.350503 143 21470ft 405kts
06-Jan-21 21:05 34.484360 -112.267289 144 19954ft 371kts
06-Jan-21 21:06 34.392259 -112.215497 172 18354ft 354kts
06-Jan-21 21:07 34.294555 -112.190965 171 16761ft 349kts
06-Jan-21 21:08 34.198840 -112.166282 171 15238ft 333kts
06-Jan-21 21:09 34.110970 -112.143627 171 13909ft 306kts
06-Jan-21 21:10 34.027678 -112.143631 188 12568ft 295kts
06-Jan-21 21:11 33.945747 -112.153069 187 11231ft 290kts
06-Jan-21 21:12 33.866403 -112.166177 191 9963ft 282kts
06-Jan-21 21:13 33.789723 -112.182427 190 8713ft 267kts
06-Jan-21 21:14 33.716991 -112.197743 190 7916ft 249kts
06-Jan-21 21:15 33.650132 -112.211859 190 6964ft 230kts
06-Jan-21 21:16 33.584782 -112.224137 170 5875ft 226kts
06-Jan-21 21:17 33.530017 -112.192035 155 4644ft 211kts
06-Jan-21 21:18 33.479646 -112.164283 155 3633ft 165kts
06-Jan-21 21:19 33.439773 -112.136770 102 2816ft 163kts
06-Jan-21 21:20 33.431373 -112.086172 91 2093ft 153kts
06-Jan-21 21:21 33.431510 -112.031703 88 3100ft 173kts
06-Jan-21 21:22 33.432204 -111.967365 88 4550ft 220kts
06-Jan-21 21:23 33.475872 -111.928628 4 5003ft 226kts
06-Jan-21 21:24 33.525499 -111.957225 271 4052ft 224kts
06-Jan-21 21:25 33.523444 -112.032474 267 4004ft 224kts
06-Jan-21 21:26 33.510999 -112.100515 217 3357ft 206kts
06-Jan-21 21:27 33.460586 -112.122834 159 2599ft 164kts
06-Jan-21 21:28 33.441327 -112.079997 95 1969ft 155kts
06-Jan-21 21:29 33.440881 -112.028640 90 1193ft 153kts
06-Jan-21 21:30 33.440005 -112.004285 128 1131ft 2kts
06-Jan-21 21:31 33.439026 -112.000727 90 1132ft 16kts
06-Jan-21 21:32 33.437947 -111.998779 266 1133ft 2kts
06-Jan-21 21:33 33.437946 -111.998785 267 1133ft 0kts

Navigation Log

Ident Type
Flight plan parsing failed, navigation log unavailable